sensor_id;sensor_type;location;lat;lon;timestamp;pressure;altitude;pressure_sealevel;temperature;humidity
33191;BME280;19554;42.652;23.364;2023-01-16T00:00:49;94440.84;;;2.79;66.07
33191;BME280;19554;42.652;23.364;2023-01-16T00:03:15;94542.13;;;3.39;66.80
33191;BME280;19554;42.652;23.364;2023-01-16T00:05:41;94479.28;;;2.97;67.07
33191;BME280;19554;42.652;23.364;2023-01-16T00:08:07;94535.78;;;3.40;67.48
33191;BME280;19554;42.652;23.364;2023-01-16T00:10:32;94522.69;;;3.28;67.07
33191;BME280;19554;42.652;23.364;2023-01-16T00:12:57;94510.41;;;3.17;68.04
33191;BME280;19554;42.652;23.364;2023-01-16T00:15:23;94524.78;;;3.26;68.09
33191;BME280;19554;42.652;23.364;2023-01-16T00:17:48;94498.47;;;3.09;68.05
33191;BME280;19554;42.652;23.364;2023-01-16T00:20:15;94512.09;;;3.23;68.14
33191;BME280;19554;42.652;23.364;2023-01-16T00:22:41;94520.63;;;3.30;67.73
33191;BME280;19554;42.652;23.364;2023-01-16T00:25:06;94528.84;;;3.33;68.81
33191;BME280;19554;42.652;23.364;2023-01-16T00:27:32;94423.34;;;2.73;69.58
33191;BME280;19554;42.652;23.364;2023-01-16T00:29:57;94513.88;;;3.39;69.34
33191;BME280;19554;42.652;23.364;2023-01-16T00:32:23;94522.34;;;3.41;68.46
33191;BME280;19554;42.652;23.364;2023-01-16T00:34:48;94513.59;;;3.36;68.14
33191;BME280;19554;42.652;23.364;2023-01-16T00:37:13;94512.91;;;3.45;68.85
33191;BME280;19554;42.652;23.364;2023-01-16T00:39:39;94514.03;;;3.49;69.41
33191;BME280;19554;42.652;23.364;2023-01-16T00:42:05;94499.78;;;3.50;70.62
33191;BME280;19554;42.652;23.364;2023-01-16T00:44:30;94502.16;;;3.52;70.59
33191;BME280;19554;42.652;23.364;2023-01-16T00:46:56;94480.63;;;3.38;70.35
33191;BME280;19554;42.652;23.364;2023-01-16T00:49:21;94476.47;;;3.42;69.93
33191;BME280;19554;42.652;23.364;2023-01-16T00:51:47;94493.22;;;3.53;69.82
33191;BME280;19554;42.652;23.364;2023-01-16T00:54:12;94495.09;;;3.58;70.18
33191;BME280;19554;42.652;23.364;2023-01-16T00:56:37;94501.97;;;3.59;69.83
33191;BME280;19554;42.652;23.364;2023-01-16T00:59:03;94492.91;;;3.49;67.14
33191;BME280;19554;42.652;23.364;2023-01-16T01:01:28;94489.59;;;3.37;66.58
33191;BME280;19554;42.652;23.364;2023-01-16T01:03:54;94495.66;;;3.38;66.29
33191;BME280;19554;42.652;23.364;2023-01-16T01:06:19;94501.59;;;3.28;66.41
33191;BME280;19554;42.652;23.364;2023-01-16T01:08:45;94493.94;;;3.26;67.35
33191;BME280;19554;42.652;23.364;2023-01-16T01:11:12;94493.63;;;3.23;67.38
33191;BME280;19554;42.652;23.364;2023-01-16T01:13:39;94483.44;;;3.09;66.14
33191;BME280;19554;42.652;23.364;2023-01-16T01:16:05;94429.84;;;2.65;64.76
33191;BME280;19554;42.652;23.364;2023-01-16T01:18:31;94493.66;;;3.06;64.86
33191;BME280;19554;42.652;23.364;2023-01-16T01:20:56;94487.78;;;2.99;64.42
33191;BME280;19554;42.652;23.364;2023-01-16T01:23:22;94499.13;;;2.99;65.34
33191;BME280;19554;42.652;23.364;2023-01-16T01:25:47;94470.41;;;2.81;65.69
33191;BME280;19554;42.652;23.364;2023-01-16T01:28:14;94490.63;;;2.97;65.59
33191;BME280;19554;42.652;23.364;2023-01-16T01:30:40;94499.13;;;2.99;65.66
33191;BME280;19554;42.652;23.364;2023-01-16T01:33:05;94489.13;;;3.01;65.88
33191;BME280;19554;42.652;23.364;2023-01-16T01:35:32;94478.59;;;3.01;66.31
33191;BME280;19554;42.652;23.364;2023-01-16T01:37:57;94440.53;;;2.75;66.70
33191;BME280;19554;42.652;23.364;2023-01-16T01:40:22;94474.81;;;2.97;67.49
33191;BME280;19554;42.652;23.364;2023-01-16T01:42:48;94474.75;;;2.92;67.74
33191;BME280;19554;42.652;23.364;2023-01-16T01:45:25;94359.97;;;2.24;66.88
33191;BME280;19554;42.652;23.364;2023-01-16T01:53:31;94447.06;;;2.73;66.05
33191;BME280;19554;42.652;23.364;2023-01-16T01:56:00;94332.00;;;2.01;66.52
33191;BME280;19554;42.652;23.364;2023-01-16T01:58:30;94452.75;;;2.81;67.85
33191;BME280;19554;42.652;23.364;2023-01-16T02:00:57;94458.25;;;2.80;67.17
33191;BME280;19554;42.652;23.364;2023-01-16T02:03:45;94452.97;;;2.80;66.92
33191;BME280;19554;42.652;23.364;2023-01-16T02:06:19;94433.91;;;2.73;66.72
33191;BME280;19554;42.652;23.364;2023-01-16T02:08:46;94444.53;;;2.78;67.47
33191;BME280;19554;42.652;23.364;2023-01-16T02:11:16;94437.63;;;2.77;68.13
33191;BME280;19554;42.652;23.364;2023-01-16T02:13:58;94447.56;;;2.70;69.06
33191;BME280;19554;42.652;23.364;2023-01-16T02:16:24;94428.09;;;2.71;68.95
33191;BME280;19554;42.652;23.364;2023-01-16T02:19:33;94441.81;;;2.73;68.60
33191;BME280;19554;42.652;23.364;2023-01-16T02:22:44;94330.41;;;1.83;67.35
33191;BME280;19554;42.652;23.364;2023-01-16T02:36:17;94426.19;;;2.49;66.92
33191;BME280;19554;42.652;23.364;2023-01-16T02:43:58;94421.56;;;2.56;67.59
33191;BME280;19554;42.652;23.364;2023-01-16T02:46:34;94337.50;;;1.99;68.08
33191;BME280;19554;42.652;23.364;2023-01-16T02:51:57;94297.63;;;1.74;66.78
33191;BME280;19554;42.652;23.364;2023-01-16T02:57:23;94423.78;;;2.65;68.17
33191;BME280;19554;42.652;23.364;2023-01-16T02:59:52;94378.78;;;2.49;68.78
33191;BME280;19554;42.652;23.364;2023-01-16T03:02:18;94303.84;;;2.01;68.36
33191;BME280;19554;42.652;23.364;2023-01-16T03:15:34;94393.13;;;2.58;66.30
33191;BME280;19554;42.652;23.364;2023-01-16T03:18:34;94363.72;;;2.28;66.51
33191;BME280;19554;42.652;23.364;2023-01-16T03:23:42;94376.66;;;2.46;66.56
33191;BME280;19554;42.652;23.364;2023-01-16T03:31:56;94323.59;;;2.21;67.10
33191;BME280;19554;42.652;23.364;2023-01-16T03:34:40;94371.91;;;2.48;67.34
33191;BME280;19554;42.652;23.364;2023-01-16T03:37:11;94354.38;;;2.37;67.49
33191;BME280;19554;42.652;23.364;2023-01-16T03:39:42;94366.91;;;2.47;67.78
33191;BME280;19554;42.652;23.364;2023-01-16T03:42:13;94353.41;;;2.43;67.36
33191;BME280;19554;42.652;23.364;2023-01-16T03:44:44;94327.44;;;2.30;65.75
33191;BME280;19554;42.652;23.364;2023-01-16T03:47:15;94344.66;;;2.37;65.48
33191;BME280;19554;42.652;23.364;2023-01-16T03:49:46;94343.84;;;2.37;65.79
33191;BME280;19554;42.652;23.364;2023-01-16T03:52:16;94344.31;;;2.34;67.10
33191;BME280;19554;42.652;23.364;2023-01-16T03:55:13;94335.31;;;2.30;66.78
33191;BME280;19554;42.652;23.364;2023-01-16T03:57:50;94294.94;;;2.02;66.21
33191;BME280;19554;42.652;23.364;2023-01-16T04:00:18;94329.97;;;2.25;67.42
33191;BME280;19554;42.652;23.364;2023-01-16T04:02:48;94323.44;;;2.27;67.65
33191;BME280;19554;42.652;23.364;2023-01-16T04:07:56;94325.50;;;2.25;66.00
33191;BME280;19554;42.652;23.364;2023-01-16T04:10:26;94338.19;;;2.28;65.96
33191;BME280;19554;42.652;23.364;2023-01-16T04:12:57;94329.34;;;2.18;65.84
33191;BME280;19554;42.652;23.364;2023-01-16T04:15:25;94330.56;;;2.10;66.10
33191;BME280;19554;42.652;23.364;2023-01-16T04:17:52;94332.41;;;2.09;66.65
33191;BME280;19554;42.652;23.364;2023-01-16T04:20:18;94289.38;;;1.82;66.87
33191;BME280;19554;42.652;23.364;2023-01-16T04:22:48;94334.00;;;2.10;66.98
33191;BME280;19554;42.652;23.364;2023-01-16T04:25:14;94310.16;;;2.00;66.71
33191;BME280;19554;42.652;23.364;2023-01-16T04:27:40;94329.84;;;2.14;66.96
33191;BME280;19554;42.652;23.364;2023-01-16T04:30:06;94323.16;;;2.07;67.03
33191;BME280;19554;42.652;23.364;2023-01-16T04:32:32;94330.31;;;2.11;66.73
33191;BME280;19554;42.652;23.364;2023-01-16T04:34:57;94319.78;;;2.11;67.64
33191;BME280;19554;42.652;23.364;2023-01-16T04:37:23;94325.66;;;2.19;67.80
33191;BME280;19554;42.652;23.364;2023-01-16T04:39:49;94322.50;;;2.17;67.94
33191;BME280;19554;42.652;23.364;2023-01-16T04:42:15;94315.66;;;2.16;68.60
33191;BME280;19554;42.652;23.364;2023-01-16T04:44:40;94274.75;;;1.91;67.66
33191;BME280;19554;42.652;23.364;2023-01-16T04:47:06;94279.63;;;1.99;66.83
33191;BME280;19554;42.652;23.364;2023-01-16T04:49:31;94272.69;;;1.93;66.80
33191;BME280;19554;42.652;23.364;2023-01-16T04:51:57;94292.66;;;2.11;66.52
33191;BME280;19554;42.652;23.364;2023-01-16T04:54:22;94298.84;;;2.22;66.66
33191;BME280;19554;42.652;23.364;2023-01-16T04:56:48;94299.84;;;2.16;66.95
33191;BME280;19554;42.652;23.364;2023-01-16T04:59:13;94314.75;;;2.27;66.08
33191;BME280;19554;42.652;23.364;2023-01-16T05:01:39;94303.16;;;2.28;65.67
33191;BME280;19554;42.652;23.364;2023-01-16T05:04:07;94307.94;;;2.31;66.46
33191;BME280;19554;42.652;23.364;2023-01-16T05:06:33;94279.31;;;2.18;67.17
33191;BME280;19554;42.652;23.364;2023-01-16T05:08:58;94287.84;;;2.25;67.35
33191;BME280;19554;42.652;23.364;2023-01-16T05:11:24;94300.53;;;2.28;68.13
33191;BME280;19554;42.652;23.364;2023-01-16T05:13:49;94309.22;;;2.28;68.67
33191;BME280;19554;42.652;23.364;2023-01-16T05:16:15;94301.41;;;2.33;68.98
33191;BME280;19554;42.652;23.364;2023-01-16T05:18:40;94294.72;;;2.26;68.33
33191;BME280;19554;42.652;23.364;2023-01-16T05:21:05;94288.94;;;2.29;68.34
33191;BME280;19554;42.652;23.364;2023-01-16T05:23:31;94281.63;;;2.31;68.30
33191;BME280;19554;42.652;23.364;2023-01-16T05:26:02;94285.81;;;2.32;68.42
33191;BME280;19554;42.652;23.364;2023-01-16T05:28:28;94263.03;;;2.21;69.33
33191;BME280;19554;42.652;23.364;2023-01-16T05:30:53;94282.22;;;2.38;69.18
33191;BME280;19554;42.652;23.364;2023-01-16T05:33:19;94255.94;;;2.21;68.75
33191;BME280;19554;42.652;23.364;2023-01-16T05:35:45;94284.31;;;2.36;69.07
33191;BME280;19554;42.652;23.364;2023-01-16T05:38:12;94264.22;;;2.30;68.92
33191;BME280;19554;42.652;23.364;2023-01-16T05:40:37;94226.13;;;2.16;68.49
33191;BME280;19554;42.652;23.364;2023-01-16T05:43:03;94255.28;;;2.31;68.24
33191;BME280;19554;42.652;23.364;2023-01-16T05:45:28;94224.66;;;2.03;69.08
33191;BME280;19554;42.652;23.364;2023-01-16T05:47:54;94260.72;;;2.24;69.64
33191;BME280;19554;42.652;23.364;2023-01-16T05:50:19;94263.84;;;2.21;70.02
33191;BME280;19554;42.652;23.364;2023-01-16T05:52:45;94276.22;;;2.21;70.10
33191;BME280;19554;42.652;23.364;2023-01-16T05:55:10;94278.22;;;2.13;70.25
33191;BME280;19554;42.652;23.364;2023-01-16T05:57:35;94272.56;;;2.05;70.27
33191;BME280;19554;42.652;23.364;2023-01-16T06:00:02;94252.66;;;1.92;71.05
33191;BME280;19554;42.652;23.364;2023-01-16T06:02:27;94237.97;;;1.96;70.41
33191;BME280;19554;42.652;23.364;2023-01-16T06:04:53;94105.97;;;1.05;69.92
33191;BME280;19554;42.652;23.364;2023-01-16T06:07:18;94230.00;;;1.91;69.15
33191;BME280;19554;42.652;23.364;2023-01-16T06:09:43;94244.53;;;1.94;68.57
33191;BME280;19554;42.652;23.364;2023-01-16T06:12:14;94260.59;;;2.14;68.35
33191;BME280;19554;42.652;23.364;2023-01-16T06:14:40;94260.41;;;2.21;68.54
33191;BME280;19554;42.652;23.364;2023-01-16T06:17:05;94237.88;;;2.08;68.63
33191;BME280;19554;42.652;23.364;2023-01-16T06:19:31;94237.38;;;2.11;68.29
33191;BME280;19554;42.652;23.364;2023-01-16T06:21:56;94247.81;;;2.23;68.72
33191;BME280;19554;42.652;23.364;2023-01-16T06:24:21;94255.28;;;2.31;69.44
33191;BME280;19554;42.652;23.364;2023-01-16T06:26:47;94261.16;;;2.38;69.97
33191;BME280;19554;42.652;23.364;2023-01-16T06:29:12;94251.66;;;2.37;70.33
33191;BME280;19554;42.652;23.364;2023-01-16T06:31:38;94265.88;;;2.58;70.13
33191;BME280;19554;42.652;23.364;2023-01-16T06:34:03;94257.22;;;2.63;70.01
33191;BME280;19554;42.652;23.364;2023-01-16T06:36:29;94255.28;;;2.75;68.94
33191;BME280;19554;42.652;23.364;2023-01-16T06:38:54;94264.22;;;2.74;68.79
33191;BME280;19554;42.652;23.364;2023-01-16T06:41:19;94274.50;;;2.75;69.46
33191;BME280;19554;42.652;23.364;2023-01-16T06:43:45;94281.13;;;2.78;69.69
33191;BME280;19554;42.652;23.364;2023-01-16T06:46:10;94279.53;;;2.77;69.41
33191;BME280;19554;42.652;23.364;2023-01-16T06:48:36;94281.91;;;2.78;69.27
33191;BME280;19554;42.652;23.364;2023-01-16T06:51:01;94270.13;;;2.86;68.53
33191;BME280;19554;42.652;23.364;2023-01-16T06:53:27;94260.09;;;2.83;68.57
33191;BME280;19554;42.652;23.364;2023-01-16T06:55:52;94249.81;;;2.81;69.43
33191;BME280;19554;42.652;23.364;2023-01-16T06:58:18;94230.56;;;2.81;69.92
33191;BME280;19554;42.652;23.364;2023-01-16T07:00:43;94247.41;;;2.80;71.14
33191;BME280;19554;42.652;23.364;2023-01-16T07:03:09;94161.34;;;2.14;71.62
33191;BME280;19554;42.652;23.364;2023-01-16T07:05:35;94244.91;;;2.68;72.65
33191;BME280;19554;42.652;23.364;2023-01-16T07:08:00;94251.69;;;2.86;72.37
33191;BME280;19554;42.652;23.364;2023-01-16T07:10:26;94262.41;;;3.01;72.31
33191;BME280;19554;42.652;23.364;2023-01-16T07:12:52;94255.41;;;3.17;72.28
33191;BME280;19554;42.652;23.364;2023-01-16T07:15:19;94261.63;;;3.33;72.41
33191;BME280;19554;42.652;23.364;2023-01-16T07:18:03;94251.69;;;3.40;72.04
33191;BME280;19554;42.652;23.364;2023-01-16T07:21:01;94238.84;;;3.49;71.69
33191;BME280;19554;42.652;23.364;2023-01-16T07:23:48;94243.13;;;3.60;71.59
33191;BME280;19554;42.652;23.364;2023-01-16T07:26:15;94253.47;;;3.67;71.52
33191;BME280;19554;42.652;23.364;2023-01-16T07:28:46;94240.34;;;3.45;72.20
33191;BME280;19554;42.652;23.364;2023-01-16T07:31:13;94177.00;;;3.02;72.58
33191;BME280;19554;42.652;23.364;2023-01-16T07:33:38;94247.41;;;3.34;72.89
33191;BME280;19554;42.652;23.364;2023-01-16T07:36:04;94238.53;;;3.45;72.81
33191;BME280;19554;42.652;23.364;2023-01-16T07:38:30;94240.66;;;3.48;72.87
33191;BME280;19554;42.652;23.364;2023-01-16T07:40:55;94233.63;;;3.59;72.73
33191;BME280;19554;42.652;23.364;2023-01-16T07:43:21;94223.53;;;3.51;72.89
33191;BME280;19554;42.652;23.364;2023-01-16T07:45:46;94163.25;;;3.00;73.52
33191;BME280;19554;42.652;23.364;2023-01-16T07:48:20;94223.19;;;3.10;74.38
33191;BME280;19554;42.652;23.364;2023-01-16T07:50:51;94229.09;;;3.22;74.86
33191;BME280;19554;42.652;23.364;2023-01-16T07:53:17;94162.13;;;2.91;74.17
33191;BME280;19554;42.652;23.364;2023-01-16T07:55:50;94209.78;;;3.12;74.75
33191;BME280;19554;42.652;23.364;2023-01-16T07:58:16;94208.63;;;3.02;75.16
33191;BME280;19554;42.652;23.364;2023-01-16T08:00:42;94194.78;;;3.17;75.12
33191;BME280;19554;42.652;23.364;2023-01-16T08:03:07;94197.34;;;3.39;74.59
33191;BME280;19554;42.652;23.364;2023-01-16T08:05:33;94198.50;;;3.53;74.18
33191;BME280;19554;42.652;23.364;2023-01-16T08:07:58;94175.31;;;3.61;73.69
33191;BME280;19554;42.652;23.364;2023-01-16T08:10:24;94170.66;;;3.73;73.15
33191;BME280;19554;42.652;23.364;2023-01-16T08:12:49;94185.78;;;3.93;72.96
33191;BME280;19554;42.652;23.364;2023-01-16T08:15:14;94184.56;;;4.11;72.51
33191;BME280;19554;42.652;23.364;2023-01-16T08:17:40;94196.16;;;4.04;72.16
33191;BME280;19554;42.652;23.364;2023-01-16T08:20:07;94182.41;;;3.97;72.29
33191;BME280;19554;42.652;23.364;2023-01-16T08:22:33;94150.66;;;3.87;72.70
33191;BME280;19554;42.652;23.364;2023-01-16T08:24:58;94226.94;;;4.31;72.15
33191;BME280;19554;42.652;23.364;2023-01-16T08:27:24;94206.56;;;4.26;71.68
33191;BME280;19554;42.652;23.364;2023-01-16T08:29:49;94213.63;;;4.16;72.31
33191;BME280;19554;42.652;23.364;2023-01-16T08:32:14;94215.22;;;4.12;73.15
33191;BME280;19554;42.652;23.364;2023-01-16T08:34:41;94205.78;;;3.78;74.16
33191;BME280;19554;42.652;23.364;2023-01-16T08:37:06;94124.53;;;3.43;74.55
33191;BME280;19554;42.652;23.364;2023-01-16T08:39:35;94158.13;;;3.58;74.78
33191;BME280;19554;42.652;23.364;2023-01-16T08:42:01;94184.25;;;4.02;74.47
33191;BME280;19554;42.652;23.364;2023-01-16T08:44:45;94175.38;;;3.71;74.79
33191;BME280;19554;42.652;23.364;2023-01-16T08:47:29;94171.22;;;3.85;75.80
33191;BME280;19554;42.652;23.364;2023-01-16T08:50:15;94078.75;;;3.65;74.39
33191;BME280;19554;42.652;23.364;2023-01-16T08:52:59;94162.53;;;4.53;73.36
33191;BME280;19554;42.652;23.364;2023-01-16T08:55:25;94165.19;;;4.68;72.72
33191;BME280;19554;42.652;23.364;2023-01-16T08:57:50;94155.16;;;4.75;72.16
33191;BME280;19554;42.652;23.364;2023-01-16T09:00:16;94159.44;;;4.86;71.25
33191;BME280;19554;42.652;23.364;2023-01-16T09:02:44;94178.22;;;5.00;71.25
33191;BME280;19554;42.652;23.364;2023-01-16T09:05:10;94167.91;;;5.09;71.02
33191;BME280;19554;42.652;23.364;2023-01-16T09:07:37;94115.53;;;4.90;70.39
33191;BME280;19554;42.652;23.364;2023-01-16T09:10:03;94107.56;;;4.65;70.50
33191;BME280;19554;42.652;23.364;2023-01-16T09:12:29;94140.94;;;4.96;70.76
33191;BME280;19554;42.652;23.364;2023-01-16T09:15:13;94089.06;;;4.60;70.60
33191;BME280;19554;42.652;23.364;2023-01-16T09:17:38;94146.75;;;5.04;70.85
33191;BME280;19554;42.652;23.364;2023-01-16T09:20:04;94127.69;;;5.12;70.68
33191;BME280;19554;42.652;23.364;2023-01-16T09:22:30;94106.81;;;5.05;70.23
33191;BME280;19554;42.652;23.364;2023-01-16T09:24:55;94141.72;;;5.22;70.39
33191;BME280;19554;42.652;23.364;2023-01-16T09:27:20;94114.50;;;5.07;70.41
33191;BME280;19554;42.652;23.364;2023-01-16T09:29:46;94112.34;;;5.19;70.30
33191;BME280;19554;42.652;23.364;2023-01-16T09:32:12;94122.94;;;5.19;70.48
33191;BME280;19554;42.652;23.364;2023-01-16T09:34:38;94104.41;;;5.29;70.36
33191;BME280;19554;42.652;23.364;2023-01-16T09:37:05;94108.09;;;5.43;70.03
33191;BME280;19554;42.652;23.364;2023-01-16T09:39:31;94103.09;;;5.37;70.24
33191;BME280;19554;42.652;23.364;2023-01-16T09:44:43;94108.16;;;4.92;70.79
33191;BME280;19554;42.652;23.364;2023-01-16T09:47:10;94109.47;;;5.10;71.50
33191;BME280;19554;42.652;23.364;2023-01-16T09:49:45;94104.44;;;5.24;71.53
33191;BME280;19554;42.652;23.364;2023-01-16T09:52:15;94091.69;;;5.26;71.10
33191;BME280;19554;42.652;23.364;2023-01-16T09:55:04;94032.25;;;4.67;71.18
33191;BME280;19554;42.652;23.364;2023-01-16T09:57:50;94087.50;;;4.79;72.35
33191;BME280;19554;42.652;23.364;2023-01-16T10:00:36;94070.03;;;4.58;72.42
33191;BME280;19554;42.652;23.364;2023-01-16T10:03:03;94030.63;;;4.31;72.92
33191;BME280;19554;42.652;23.364;2023-01-16T10:05:38;94076.41;;;4.62;72.29
33191;BME280;19554;42.652;23.364;2023-01-16T10:10:54;94068.47;;;4.51;73.23
33191;BME280;19554;42.652;23.364;2023-01-16T10:23:56;94040.94;;;5.14;71.16
33191;BME280;19554;42.652;23.364;2023-01-16T10:26:29;94032.25;;;4.93;71.69
33191;BME280;19554;42.652;23.364;2023-01-16T10:32:04;94022.19;;;4.85;72.30
33191;BME280;19554;42.652;23.364;2023-01-16T10:37:14;93997.63;;;4.79;72.20
33191;BME280;19554;42.652;23.364;2023-01-16T10:39:40;93998.63;;;4.98;72.19
33191;BME280;19554;42.652;23.364;2023-01-16T10:47:49;93991.13;;;5.36;71.28
33191;BME280;19554;42.652;23.364;2023-01-16T10:50:34;93991.34;;;5.50;70.52
33191;BME280;19554;42.652;23.364;2023-01-16T10:53:01;93866.22;;;4.80;70.12
33191;BME280;19554;42.652;23.364;2023-01-16T10:55:27;93958.31;;;5.42;70.23
33191;BME280;19554;42.652;23.364;2023-01-16T10:57:55;93816.31;;;4.58;69.76
33191;BME280;19554;42.652;23.364;2023-01-16T11:00:25;93947.25;;;5.25;70.08
33191;BME280;19554;42.652;23.364;2023-01-16T11:02:58;93961.31;;;5.20;70.26
33191;BME280;19554;42.652;23.364;2023-01-16T11:05:30;93926.69;;;5.02;70.63
33191;BME280;19554;42.652;23.364;2023-01-16T11:08:17;93922.50;;;4.85;71.43
33191;BME280;19554;42.652;23.364;2023-01-16T11:10:46;93929.38;;;4.96;71.97
33191;BME280;19554;42.652;23.364;2023-01-16T11:13:18;93924.09;;;4.86;72.18
33191;BME280;19554;42.652;23.364;2023-01-16T11:19:15;93917.47;;;4.89;72.18
33191;BME280;19554;42.652;23.364;2023-01-16T11:21:42;93911.38;;;4.98;72.26
33191;BME280;19554;42.652;23.364;2023-01-16T11:24:18;93899.22;;;4.97;72.03
33191;BME280;19554;42.652;23.364;2023-01-16T11:26:49;93924.34;;;5.00;72.56
33191;BME280;19554;42.652;23.364;2023-01-16T11:29:17;93882.09;;;4.80;72.20
33191;BME280;19554;42.652;23.364;2023-01-16T11:31:52;93902.34;;;5.10;71.72
33191;BME280;19554;42.652;23.364;2023-01-16T11:34:20;93914.50;;;5.11;71.82
33191;BME280;19554;42.652;23.364;2023-01-16T11:36:47;93907.63;;;5.20;71.67
33191;BME280;19554;42.652;23.364;2023-01-16T11:39:20;93825.25;;;4.77;71.08
33191;BME280;19554;42.652;23.364;2023-01-16T11:41:51;93881.16;;;5.15;71.47
33191;BME280;19554;42.652;23.364;2023-01-16T11:44:23;93892.25;;;5.22;71.35
33191;BME280;19554;42.652;23.364;2023-01-16T11:47:32;93879.06;;;5.12;71.35
33191;BME280;19554;42.652;23.364;2023-01-16T11:49:56;93885.03;;;5.33;71.28
33191;BME280;19554;42.652;23.364;2023-01-16T11:52:23;93878.44;;;5.35;70.66
33191;BME280;19554;42.652;23.364;2023-01-16T11:54:56;93765.03;;;4.69;70.43
33191;BME280;19554;42.652;23.364;2023-01-16T12:01:36;93855.44;;;5.26;71.03
33191;BME280;19554;42.652;23.364;2023-01-16T12:06:38;93854.16;;;5.23;70.96
33191;BME280;19554;42.652;23.364;2023-01-16T12:10:03;93856.66;;;5.43;70.68
33191;BME280;19554;42.652;23.364;2023-01-16T12:12:13;93847.16;;;5.42;70.56
33191;BME280;19554;42.652;23.364;2023-01-16T12:15:11;93846.31;;;5.52;70.14
33191;BME280;19554;42.652;23.364;2023-01-16T12:20:53;93838.00;;;5.69;69.60
33191;BME280;19554;42.652;23.364;2023-01-16T12:23:32;93796.41;;;5.35;69.76
33191;BME280;19554;42.652;23.364;2023-01-16T12:34:22;93815.41;;;5.42;69.15
33191;BME280;19554;42.652;23.364;2023-01-16T12:42:09;93811.25;;;5.26;70.45
33191;BME280;19554;42.652;23.364;2023-01-16T12:48:06;93803.91;;;5.18;70.51
33191;BME280;19554;42.652;23.364;2023-01-16T12:58:17;93784.66;;;5.46;70.89
33191;BME280;19554;42.652;23.364;2023-01-16T13:01:06;93791.19;;;5.64;70.55
33191;BME280;19554;42.652;23.364;2023-01-16T13:03:41;93776.47;;;5.82;69.58
33191;BME280;19554;42.652;23.364;2023-01-16T13:06:15;93767.53;;;5.73;69.23
33191;BME280;19554;42.652;23.364;2023-01-16T13:08:48;93765.13;;;5.77;69.63
33191;BME280;19554;42.652;23.364;2023-01-16T13:11:31;93756.44;;;5.71;68.58
33191;BME280;19554;42.652;23.364;2023-01-16T13:14:18;93762.78;;;5.70;68.98
33191;BME280;19554;42.652;23.364;2023-01-16T13:16:59;93748.41;;;5.81;68.66
33191;BME280;19554;42.652;23.364;2023-01-16T13:19:29;93746.31;;;5.78;68.80
33191;BME280;19554;42.652;23.364;2023-01-16T13:22:04;93731.50;;;5.77;68.83
33191;BME280;19554;42.652;23.364;2023-01-16T13:24:34;93743.00;;;5.62;69.75
33191;BME280;19554;42.652;23.364;2023-01-16T13:27:04;93739.56;;;5.62;69.82
33191;BME280;19554;42.652;23.364;2023-01-16T13:29:39;93714.91;;;5.37;70.23
33191;BME280;19554;42.652;23.364;2023-01-16T13:32:25;93618.66;;;4.60;71.30
33191;BME280;19554;42.652;23.364;2023-01-16T13:34:57;93743.72;;;5.39;71.31
33191;BME280;19554;42.652;23.364;2023-01-16T13:40:48;93739.47;;;5.04;72.39
33191;BME280;19554;42.652;23.364;2023-01-16T13:42:58;93713.50;;;5.11;72.40
33191;BME280;19554;42.652;23.364;2023-01-16T13:45:45;93730.38;;;5.15;72.42
33191;BME280;19554;42.652;23.364;2023-01-16T13:48:19;93681.38;;;4.88;72.18
33191;BME280;19554;42.652;23.364;2023-01-16T13:53:35;93719.19;;;5.28;71.97
33191;BME280;19554;42.652;23.364;2023-01-16T13:56:08;93713.03;;;5.38;71.27
33191;BME280;19554;42.652;23.364;2023-01-16T13:58:39;93705.28;;;5.46;70.92
33191;BME280;19554;42.652;23.364;2023-01-16T14:01:06;93659.97;;;5.24;70.70
33191;BME280;19554;42.652;23.364;2023-01-16T14:06:43;93665.63;;;5.41;70.94
33191;BME280;19554;42.652;23.364;2023-01-16T14:17:30;93696.22;;;5.53;70.86
33191;BME280;19554;42.652;23.364;2023-01-16T14:20:35;93696.94;;;5.34;71.60
33191;BME280;19554;42.652;23.364;2023-01-16T14:23:03;93715.41;;;5.39;71.79
33191;BME280;19554;42.652;23.364;2023-01-16T14:25:54;93709.63;;;5.32;70.94
33191;BME280;19554;42.652;23.364;2023-01-16T14:28:20;93711.78;;;5.30;70.10
33191;BME280;19554;42.652;23.364;2023-01-16T14:30:47;93698.09;;;5.18;70.62
33191;BME280;19554;42.652;23.364;2023-01-16T14:33:16;93702.03;;;4.81;71.07
33191;BME280;19554;42.652;23.364;2023-01-16T14:35:49;93705.72;;;4.85;71.38
33191;BME280;19554;42.652;23.364;2023-01-16T14:38:19;93701.66;;;4.98;71.26
33191;BME280;19554;42.652;23.364;2023-01-16T14:41:02;93702.63;;;4.73;71.51
33191;BME280;19554;42.652;23.364;2023-01-16T14:47:05;93689.41;;;4.68;71.96
33191;BME280;19554;42.652;23.364;2023-01-16T14:50:13;93696.84;;;4.61;72.52
33191;BME280;19554;42.652;23.364;2023-01-16T14:55:52;93693.72;;;4.59;72.64
33191;BME280;19554;42.652;23.364;2023-01-16T14:58:29;93702.13;;;4.66;72.76
33191;BME280;19554;42.652;23.364;2023-01-16T15:00:57;93666.75;;;4.57;72.50
33191;BME280;19554;42.652;23.364;2023-01-16T15:03:42;93691.13;;;4.43;73.16
33191;BME280;19554;42.652;23.364;2023-01-16T15:06:09;93685.84;;;4.48;73.61
33191;BME280;19554;42.652;23.364;2023-01-16T15:08:36;93668.63;;;4.51;73.21
33191;BME280;19554;42.652;23.364;2023-01-16T15:11:15;93630.47;;;4.23;73.12
33191;BME280;19554;42.652;23.364;2023-01-16T15:14:16;93686.66;;;4.39;73.52
33191;BME280;19554;42.652;23.364;2023-01-16T15:22:44;93677.44;;;4.36;74.16
33191;BME280;19554;42.652;23.364;2023-01-16T15:25:21;93694.00;;;4.52;74.58
33191;BME280;19554;42.652;23.364;2023-01-16T15:27:56;93680.56;;;4.48;73.78
33191;BME280;19554;42.652;23.364;2023-01-16T15:30:25;93619.53;;;3.85;74.96
33191;BME280;19554;42.652;23.364;2023-01-16T15:32:59;93661.47;;;4.07;75.49
33191;BME280;19554;42.652;23.364;2023-01-16T15:35:44;93688.06;;;4.21;75.54
33191;BME280;19554;42.652;23.364;2023-01-16T15:38:11;93638.22;;;4.04;75.21
33191;BME280;19554;42.652;23.364;2023-01-16T15:40:37;93704.38;;;4.33;74.92